Planet Ace — 3EYF9 — position and weather

sailwx.info

Track history (hours):
 
Tides and Currents Weather Stations Pressure Air Temp Water Temp Dewpoint Dewpoint Depression Visibility Wind Speed Wind Dir Waves Ship Positions

Planet Ace

Last reported at 2014-Sep-18 23:15 UTC. Time now 2014-Sep-19 05:49 UTC.
Position N 36°19' E 015°13'.

Length 188 m; beam 28.2 m.

Type: Cargo ship. MMSI: 352168000.

Date/timePositionNaut miles runAvg speedWind from/ knotsBaromVisibWave heightAir tempDewpointWater temp
2014-Sep-18 23:15N 36°19' E 015°13'1115.6
2014-Sep-18 22:34N 36°18' E 015°26'41315.2
2014-Sep-17 19:25N 36°46' E 023°59'4916.4
2014-Sep-17 16:27N 37°31' E 024°23'27113.5
2014-Sep-16 20:20N 40°37' E 028°38'2313.2
2014-Sep-16 18:33N 40°25' E 029°05'1 0.1
2014-Sep-16 02:32N 40°25' E 029°04'1812.4
2014-Sep-16 01:05N 40°36' E 028°44'916.6
2014-Sep-16 00:33N 40°40' E 028°54'1616.3
2014-Sep-15 23:33N 40°45' E 029°15'1211.5
2014-Sep-15 22:31N 40°45' E 029°31'5 0.5
2014-Sep-15 12:28N 40°44' E 029°37'1011.2
2014-Sep-15 11:33N 40°44' E 029°24'8 8.2
2014-Sep-15 10:33N 40°43' E 029°13'1616.2
2014-Sep-15 09:33N 40°43' E 028°51'17313.3
2014-Sep-14 20:33N 39°22' E 025°31'3516.2
2014-Sep-14 18:24N 38°51' E 025°13'2916.0
2014-Sep-14 16:33N 38°25' E 024°55'3615.8
2014-Sep-14 14:17N 37°53' E 024°33'1115.6
2014-Sep-14 13:33N 37°46' E 024°21'1515.6
2014-Sep-14 12:33N 37°36' E 024°06'1815.0
2014-Sep-14 11:21N 37°37' E 023°44'1316.2
2014-Sep-14 10:34N 37°49' E 023°37'9 8.5
2014-Sep-14 09:32N 37°58' E 023°36'0 0.0
2014-Sep-14 08:32N 37°58' E 023°36'0 0.0
2014-Sep-14 07:32N 37°58' E 023°36'0 0.0
2014-Sep-14 06:32N 37°58' E 023°36'1 0.2
2014-Sep-14 04:19N 37°57' E 023°36'3 4.3
2014-Sep-14 03:33N 37°54' E 023°36'3 3.0
2014-Sep-14 02:33N 37°52' E 023°38'1313.3
2014-Sep-14 01:34N 37°40' E 023°46'6615.8
2014-Sep-13 21:23N 36°36' E 023°25'1415.5
2014-Sep-13 20:27N 36°23' E 023°18'47610.1
2014-Sep-11 21:10N 39°30' E 014°03'1016.0
2014-Sep-11 20:33N 39°37' E 013°54'1816.2
2014-Sep-11 19:27N 39°49' E 013°36'25015.3
2014-Sep-11 03:08N 42°56' E 009°57'915.9
2014-Sep-11 02:34N 43°05' E 010°01'1615.7
2014-Sep-11 01:33N 43°20' E 010°09'1413.8
2014-Sep-11 00:33N 43°32' E 010°16'3 2.9
2014-Sep-10 23:33N 43°35' E 010°18'0 0.0
2014-Sep-10 22:33N 43°35' E 010°18'0 0.0
2014-Sep-10 21:33N 43°35' E 010°18'0 0.0
2014-Sep-10 20:33N 43°35' E 010°18'0 0.0
2014-Sep-10 19:33N 43°35' E 010°18'0 0.0
2014-Sep-10 18:33N 43°35' E 010°18'0 0.0
2014-Sep-10 17:33N 43°35' E 010°18'0 0.0
2014-Sep-10 16:30N 43°35' E 010°18'0 0.0
2014-Sep-10 15:33N 43°35' E 010°18'0 0.5
2014-Sep-10 14:33N 43°34' E 010°18'4513.1
2014-Sep-10 11:07N 43°11' E 009°25'7816.6
2014-Sep-10 06:26N 42°45' E 007°45'1315.4
2014-Sep-10 05:33N 42°40' E 007°28'1616.3
2014-Sep-10 04:33N 42°34' E 007°08'1616.3
2014-Sep-10 03:33N 42°29' E 006°46'1616.4
2014-Sep-10 02:33N 42°24' E 006°25'1616.3
2014-Sep-10 01:33N 42°18' E 006°05'1616.0
2014-Sep-10 00:33N 42°12' E 005°44'1716.0
2014-Sep-09 23:30N 42°07' E 005°23'1616.4
2014-Sep-09 22:33N 42°02' E 005°03'2116.5
2014-Sep-09 21:16N 41°55' E 004°36'1916.3
2014-Sep-09 20:06N 41°48' E 004°12'2515.7
2014-Sep-09 18:30N 41°40' E 003°41'1414.7
2014-Sep-09 17:33N 41°35' E 003°23'1715.3
2014-Sep-09 16:27N 41°30' E 003°02'1415.5
2014-Sep-09 15:33N 41°25' E 002°45'1615.7
2014-Sep-09 14:33N 41°20' E 002°25'1111.1
2014-Sep-09 13:33N 41°19' E 002°10'2 1.4
2014-Sep-09 12:27N 41°20' E 002°09'0 0.0
2014-Sep-09 03:22N 41°20' E 002°09'5 4.8
2014-Sep-09 02:15N 41°15' E 002°11'1014.5
2014-Sep-09 01:33N 41°05' E 002°10'6 5.8
2014-Sep-09 00:33N 40°59' E 002°10'1 1.1
2014-Sep-08 23:33N 40°59' E 002°11'  
Track history (hours):
 
Tides and Currents Weather Stations Pressure Air Temp Water Temp Dewpoint Dewpoint Depression Visibility Wind Speed Wind Dir Waves Ship Positions

Planet Ace

Last reported at 2014-Sep-18 23:15 UTC. Time now 2014-Sep-19 05:49 UTC.
Position N 36°19' E 015°13'.

Length 188 m; beam 28.2 m.

Type: Cargo ship. MMSI: 352168000.

Date/timePositionNaut miles runAvg speedWind from/ knotsBaromVisibWave heightAir tempDewpointWater temp
2014-Sep-18 23:15N 36°19' E 015°13'1115.6
2014-Sep-18 22:34N 36°18' E 015°26'41315.2
2014-Sep-17 19:25N 36°46' E 023°59'4916.4
2014-Sep-17 16:27N 37°31' E 024°23'27113.5
2014-Sep-16 20:20N 40°37' E 028°38'2313.2
2014-Sep-16 18:33N 40°25' E 029°05'1 0.1
2014-Sep-16 02:32N 40°25' E 029°04'1812.4
2014-Sep-16 01:05N 40°36' E 028°44'916.6
2014-Sep-16 00:33N 40°40' E 028°54'1616.3
2014-Sep-15 23:33N 40°45' E 029°15'1211.5
2014-Sep-15 22:31N 40°45' E 029°31'5 0.5
2014-Sep-15 12:28N 40°44' E 029°37'1011.2
2014-Sep-15 11:33N 40°44' E 029°24'8 8.2
2014-Sep-15 10:33N 40°43' E 029°13'1616.2
2014-Sep-15 09:33N 40°43' E 028°51'17313.3
2014-Sep-14 20:33N 39°22' E 025°31'3516.2
2014-Sep-14 18:24N 38°51' E 025°13'2916.0
2014-Sep-14 16:33N 38°25' E 024°55'3615.8
2014-Sep-14 14:17N 37°53' E 024°33'1115.6
2014-Sep-14 13:33N 37°46' E 024°21'1515.6
2014-Sep-14 12:33N 37°36' E 024°06'1815.0
2014-Sep-14 11:21N 37°37' E 023°44'1316.2
2014-Sep-14 10:34N 37°49' E 023°37'9 8.5
2014-Sep-14 09:32N 37°58' E 023°36'0 0.0
2014-Sep-14 08:32N 37°58' E 023°36'0 0.0
2014-Sep-14 07:32N 37°58' E 023°36'0 0.0
2014-Sep-14 06:32N 37°58' E 023°36'1 0.2
2014-Sep-14 04:19N 37°57' E 023°36'3 4.3
2014-Sep-14 03:33N 37°54' E 023°36'3 3.0
2014-Sep-14 02:33N 37°52' E 023°38'1313.3
2014-Sep-14 01:34N 37°40' E 023°46'6615.8
2014-Sep-13 21:23N 36°36' E 023°25'1415.5
2014-Sep-13 20:27N 36°23' E 023°18'47610.1
2014-Sep-11 21:10N 39°30' E 014°03'1016.0
2014-Sep-11 20:33N 39°37' E 013°54'1816.2
2014-Sep-11 19:27N 39°49' E 013°36'25015.3
2014-Sep-11 03:08N 42°56' E 009°57'915.9
2014-Sep-11 02:34N 43°05' E 010°01'1615.7
2014-Sep-11 01:33N 43°20' E 010°09'1413.8
2014-Sep-11 00:33N 43°32' E 010°16'3 2.9
2014-Sep-10 23:33N 43°35' E 010°18'0 0.0
2014-Sep-10 22:33N 43°35' E 010°18'0 0.0
2014-Sep-10 21:33N 43°35' E 010°18'0 0.0
2014-Sep-10 20:33N 43°35' E 010°18'0 0.0
2014-Sep-10 19:33N 43°35' E 010°18'0 0.0
2014-Sep-10 18:33N 43°35' E 010°18'0 0.0
2014-Sep-10 17:33N 43°35' E 010°18'0 0.0
2014-Sep-10 16:30N 43°35' E 010°18'0 0.0
2014-Sep-10 15:33N 43°35' E 010°18'0 0.5
2014-Sep-10 14:33N 43°34' E 010°18'4513.1
2014-Sep-10 11:07N 43°11' E 009°25'7816.6
2014-Sep-10 06:26N 42°45' E 007°45'1315.4
2014-Sep-10 05:33N 42°40' E 007°28'1616.3
2014-Sep-10 04:33N 42°34' E 007°08'1616.3
2014-Sep-10 03:33N 42°29' E 006°46'1616.4
2014-Sep-10 02:33N 42°24' E 006°25'1616.3
2014-Sep-10 01:33N 42°18' E 006°05'1616.0
2014-Sep-10 00:33N 42°12' E 005°44'1716.0
2014-Sep-09 23:30N 42°07' E 005°23'1616.4
2014-Sep-09 22:33N 42°02' E 005°03'2116.5
2014-Sep-09 21:16N 41°55' E 004°36'1916.3
2014-Sep-09 20:06N 41°48' E 004°12'2515.7
2014-Sep-09 18:30N 41°40' E 003°41'1414.7
2014-Sep-09 17:33N 41°35' E 003°23'1715.3
2014-Sep-09 16:27N 41°30' E 003°02'1415.5
2014-Sep-09 15:33N 41°25' E 002°45'1615.7
2014-Sep-09 14:33N 41°20' E 002°25'1111.1
2014-Sep-09 13:33N 41°19' E 002°10'2 1.4
2014-Sep-09 12:27N 41°20' E 002°09'0 0.0
2014-Sep-09 03:22N 41°20' E 002°09'5 4.8
2014-Sep-09 02:15N 41°15' E 002°11'1014.5
2014-Sep-09 01:33N 41°05' E 002°10'6 5.8
2014-Sep-09 00:33N 40°59' E 002°10'1 1.1
2014-Sep-08 23:33N 40°59' E 002°11'  

Dump ship's entire track history